createdAt,value
2019-04-25T00:02:22.339Z,11.67
2019-04-25T00:04:53.485Z,12.13
2019-04-25T00:07:24.314Z,11.47
2019-04-25T00:09:55.566Z,10.83
2019-04-25T00:12:26.429Z,11.97
2019-04-25T00:15:01.267Z,13.13
2019-04-25T00:17:33.241Z,12.23
2019-04-25T00:20:04.855Z,11.40
2019-04-25T00:22:37.389Z,10.73
2019-04-25T00:25:15.965Z,11.90
2019-04-25T00:27:43.568Z,11.77
2019-04-25T00:30:14.820Z,12.00
2019-04-25T00:32:45.525Z,11.47
2019-04-25T00:35:16.472Z,12.53
2019-04-25T00:37:47.824Z,12.03
2019-04-25T00:40:18.803Z,11.37
2019-04-25T00:42:50.675Z,11.77
2019-04-25T00:45:22.292Z,12.20
2019-04-25T00:47:53.462Z,12.83
2019-04-25T00:50:24.431Z,11.97
2019-04-25T00:52:55.084Z,12.27
2019-04-25T00:55:28.804Z,12.90
2019-04-25T00:58:01.380Z,11.30
2019-04-25T01:00:35.161Z,11.87
2019-04-25T01:03:11.238Z,12.37
2019-04-25T01:05:44.300Z,12.53
2019-04-25T01:08:14.881Z,12.50
2019-04-25T01:10:46.221Z,12.57
2019-04-25T01:13:17.451Z,11.77
2019-04-25T01:15:48.502Z,12.13
2019-04-25T01:18:19.487Z,12.40
2019-04-25T01:20:51.165Z,12.57
2019-04-25T01:23:23.656Z,11.27
2019-04-25T01:25:54.687Z,13.17
2019-04-25T01:28:25.713Z,12.63
2019-04-25T01:30:56.452Z,12.87
2019-04-25T01:33:28.124Z,12.87
2019-04-25T01:36:03.624Z,12.93
2019-04-25T01:38:53.627Z,12.73
2019-04-25T01:41:25.596Z,12.27
2019-04-25T01:44:00.645Z,13.50
2019-04-25T01:46:31.585Z,11.93
2019-04-25T01:49:04.234Z,12.57
2019-04-25T01:51:35.088Z,12.77
2019-04-25T01:54:05.979Z,12.97
2019-04-25T01:56:36.550Z,12.33
2019-04-25T01:59:07.294Z,13.70
2019-04-25T02:01:39.721Z,12.33
2019-04-25T02:04:11.096Z,13.20
2019-04-25T02:06:43.057Z,13.07
2019-04-25T02:09:14.722Z,13.30
2019-04-25T02:11:54.730Z,13.90
2019-04-25T02:14:26.538Z,13.83
2019-04-25T02:16:59.041Z,13.73
2019-04-25T02:19:29.872Z,13.13
2019-04-25T02:22:02.470Z,20.67
2019-04-25T02:24:34.013Z,17.77
2019-04-25T02:27:04.862Z,14.37
2019-04-25T02:29:35.583Z,16.00
2019-04-25T02:32:09.052Z,19.37
2019-04-25T02:34:39.113Z,15.73
2019-04-25T02:37:09.889Z,14.07
2019-04-25T02:39:40.552Z,14.50
2019-04-25T02:42:11.375Z,13.60
2019-04-25T02:44:44.510Z,12.80
2019-04-25T02:47:34.465Z,12.90
2019-04-25T02:50:15.129Z,13.50
2019-04-25T02:52:47.848Z,12.67
2019-04-25T02:55:30.999Z,14.23
2019-04-25T02:57:50.893Z,13.07
2019-04-25T03:00:45.341Z,13.47
2019-04-25T03:03:01.257Z,12.17
2019-04-25T03:05:32.034Z,13.57
2019-04-25T03:08:07.953Z,12.97
2019-04-25T03:13:15.312Z,13.00
2019-04-25T03:15:46.977Z,13.77
2019-04-25T03:18:19.285Z,15.03
2019-04-25T03:20:54.931Z,14.07
2019-04-25T03:23:30.341Z,14.87
2019-04-25T03:26:04.711Z,14.70
2019-04-25T03:28:35.746Z,14.30
2019-04-25T03:31:12.763Z,14.43
2019-04-25T03:33:38.908Z,16.93
2019-04-25T03:36:09.650Z,15.03
2019-04-25T03:38:40.628Z,17.73
2019-04-25T03:41:11.448Z,17.87
2019-04-25T03:43:44.133Z,19.40
2019-04-25T03:46:14.832Z,16.07
2019-04-25T03:48:45.572Z,14.30
2019-04-25T03:51:16.363Z,15.03
2019-04-25T03:53:46.992Z,15.67
2019-04-25T03:56:17.701Z,15.93
2019-04-25T03:58:50.734Z,17.13
2019-04-25T04:01:24.520Z,15.63
2019-04-25T04:03:55.928Z,17.63
2019-04-25T04:06:26.829Z,18.20
2019-04-25T04:08:57.542Z,23.33
2019-04-25T04:11:28.427Z,29.67
2019-04-25T04:13:59.006Z,20.47
2019-04-25T04:16:44.304Z,23.00
2019-04-25T04:19:24.042Z,16.90
2019-04-25T04:21:56.529Z,17.43
2019-04-25T04:24:29.831Z,16.97
2019-04-25T04:27:09.116Z,14.83
2019-04-25T04:29:39.550Z,13.53
2019-04-25T04:32:10.568Z,13.80
2019-04-25T04:34:41.388Z,14.67
2019-04-25T04:37:13.944Z,13.87
2019-04-25T04:39:44.537Z,13.60
2019-04-25T04:42:16.073Z,14.10
2019-04-25T04:44:46.877Z,15.73
2019-04-25T04:47:17.462Z,13.80
2019-04-25T04:49:48.211Z,14.00
2019-04-25T04:52:19.097Z,14.27
2019-04-25T04:54:57.686Z,14.87
2019-04-25T04:57:32.267Z,14.13
2019-04-25T04:59:54.975Z,14.03
2019-04-25T05:02:33.710Z,14.37
2019-04-25T05:05:06.806Z,13.47
2019-04-25T05:07:53.860Z,13.43
2019-04-25T05:10:24.990Z,13.57
2019-04-25T05:12:55.936Z,14.20
2019-04-25T05:15:26.845Z,13.50
2019-04-25T05:17:58.302Z,13.67
2019-04-25T05:20:28.944Z,13.73
2019-04-25T05:22:59.546Z,13.80
2019-04-25T05:25:30.772Z,15.13
2019-04-25T05:28:05.116Z,13.93
2019-04-25T05:30:40.745Z,14.63
2019-04-25T05:33:11.608Z,14.80
2019-04-25T05:35:43.773Z,13.33
2019-04-25T05:38:16.338Z,15.10
2019-04-25T05:40:50.430Z,14.50
2019-04-25T05:43:21.476Z,14.97
2019-04-25T05:45:52.040Z,14.20
2019-04-25T05:48:25.068Z,13.30
2019-04-25T05:50:55.243Z,14.53
2019-04-25T05:53:26.356Z,13.90
2019-04-25T05:55:57.733Z,14.13
2019-04-25T05:58:28.605Z,15.30
2019-04-25T06:01:00.522Z,14.20
2019-04-25T06:03:31.688Z,12.93
2019-04-25T06:06:03.483Z,14.03
2019-04-25T06:08:37.820Z,13.27
2019-04-25T06:11:18.084Z,13.40
2019-04-25T06:13:53.784Z,13.80
2019-04-25T06:16:28.281Z,12.67
2019-04-25T06:19:14.203Z,14.17
2019-04-25T06:21:43.511Z,13.67
2019-04-25T06:24:20.472Z,13.00
2019-04-25T06:26:53.911Z,13.47
2019-04-25T06:29:24.856Z,12.63
2019-04-25T06:32:05.714Z,12.03
2019-04-25T06:34:31.693Z,12.57
2019-04-25T06:37:04.255Z,12.87
2019-04-25T06:39:34.141Z,13.73
2019-04-25T06:42:06.064Z,13.03
2019-04-25T06:44:43.224Z,13.87
2019-04-25T06:47:29.572Z,12.00
2019-04-25T06:50:00.314Z,12.43
2019-04-25T06:52:32.053Z,12.87
2019-04-25T06:55:16.927Z,12.13
2019-04-25T06:57:54.416Z,12.53
2019-04-25T07:00:29.488Z,12.40
2019-04-25T07:03:01.234Z,12.30
2019-04-25T07:05:40.287Z,12.30
2019-04-25T07:08:07.679Z,11.80
2019-04-25T07:10:39.289Z,11.07
2019-04-25T07:13:10.230Z,11.22
2019-04-25T07:15:41.399Z,11.65
2019-04-25T07:18:14.097Z,11.97
2019-04-25T07:20:45.445Z,10.88
2019-04-25T07:23:17.082Z,11.60
2019-04-25T07:25:50.549Z,10.15
2019-04-25T07:28:36.087Z,11.35
2019-04-25T07:31:13.324Z,11.55
2019-04-25T07:33:49.716Z,10.08
2019-04-25T07:36:23.248Z,10.28
2019-04-25T07:39:05.775Z,11.20
2019-04-25T07:41:36.749Z,11.05
2019-04-25T07:44:07.384Z,11.08
2019-04-25T07:46:39.957Z,11.12
2019-04-25T07:49:13.365Z,10.68
2019-04-25T07:51:46.973Z,10.20
2019-04-25T07:54:18.008Z,9.98
2019-04-25T07:56:51.642Z,9.80
2019-04-25T07:59:25.533Z,10.08
2019-04-25T08:01:59.653Z,9.95
2019-04-25T08:04:31.774Z,10.82
2019-04-25T08:07:04.949Z,10.58
2019-04-25T08:09:37.978Z,10.23
2019-04-25T08:12:09.323Z,11.22
2019-04-25T08:14:41.742Z,10.93
2019-04-25T08:17:16.295Z,10.45
2019-04-25T08:20:01.939Z,10.60
2019-04-25T08:22:42.912Z,11.00
2019-04-25T08:25:11.093Z,10.53
2019-04-25T08:27:41.862Z,10.65
2019-04-25T08:30:16.019Z,9.75
2019-04-25T08:32:49.472Z,9.88
2019-04-25T08:35:21.479Z,11.15
2019-04-25T08:37:54.275Z,10.40
2019-04-25T08:40:32.471Z,11.20
2019-04-25T08:43:06.548Z,11.15
2019-04-25T08:45:39.961Z,11.00
2019-04-25T08:48:13.621Z,10.65
2019-04-25T08:51:03.674Z,11.08
2019-04-25T08:53:38.697Z,11.20
2019-04-25T08:56:15.313Z,11.08
2019-04-25T08:59:03.332Z,11.00
2019-04-25T09:01:34.901Z,11.25
2019-04-25T09:04:10.733Z,10.50
2019-04-25T09:06:44.342Z,10.60
2019-04-25T09:09:16.672Z,11.50
2019-04-25T09:11:49.192Z,10.70
2019-04-25T09:14:22.053Z,11.40
2019-04-25T09:16:55.124Z,10.90
2019-04-25T09:19:28.063Z,11.55
2019-04-25T09:22:03.218Z,11.10
2019-04-25T09:24:37.729Z,11.05
2019-04-25T09:27:09.800Z,11.55
2019-04-25T09:29:41.125Z,11.60
2019-04-25T09:32:16.230Z,11.60
2019-04-25T09:34:52.616Z,11.25
2019-04-25T09:37:29.656Z,11.00
2019-04-25T09:40:10.264Z,10.53
2019-04-25T09:42:44.739Z,11.22
2019-04-25T09:45:30.901Z,12.30
2019-04-25T09:48:10.088Z,12.18
2019-04-25T09:51:01.102Z,11.65
2019-04-25T09:53:34.291Z,11.20
2019-04-25T09:56:10.155Z,11.35
2019-04-25T09:58:53.841Z,11.60
2019-04-25T10:01:28.061Z,11.48
2019-04-25T10:04:03.073Z,10.25
2019-04-25T10:06:38.912Z,10.75
2019-04-25T10:09:15.618Z,10.95
2019-04-25T10:11:46.714Z,10.15
2019-04-25T10:14:37.693Z,11.53
2019-04-25T10:17:10.470Z,12.43
2019-04-25T10:19:45.597Z,10.28
2019-04-25T10:22:20.979Z,10.60
2019-04-25T10:25:00.414Z,9.83
2019-04-25T10:27:26.233Z,10.63
2019-04-25T10:29:57.469Z,10.63
2019-04-25T10:32:28.417Z,11.18
2019-04-25T10:34:59.908Z,10.95
2019-04-25T10:37:30.802Z,10.72
2019-04-25T10:40:01.696Z,11.03
2019-04-25T10:42:34.274Z,11.50
2019-04-25T10:45:20.211Z,11.65
2019-04-25T10:47:40.222Z,14.07
2019-04-25T10:50:11.453Z,11.33
2019-04-25T10:52:46.146Z,12.55
2019-04-25T10:55:18.248Z,11.33
2019-04-25T10:57:49.445Z,11.48
2019-04-25T11:00:25.817Z,12.53
2019-04-25T11:02:59.536Z,10.68
2019-04-25T11:05:30.654Z,12.93
2019-04-25T11:08:02.012Z,11.50
2019-04-25T11:10:34.372Z,11.70
2019-04-25T11:13:07.117Z,11.48
2019-04-25T11:15:42.880Z,11.25
2019-04-25T11:18:15.303Z,11.45
2019-04-25T11:20:48.828Z,11.57
2019-04-25T11:23:19.792Z,11.20
2019-04-25T11:25:54.155Z,11.50
2019-04-25T11:28:26.829Z,11.12
2019-04-25T11:30:58.929Z,11.73
2019-04-25T11:33:33.643Z,12.63
2019-04-25T11:36:05.641Z,11.25
2019-04-25T11:38:54.556Z,11.08
2019-04-25T11:41:34.186Z,10.78
2019-04-25T11:59:26.161Z,11.53
2019-04-25T12:01:58.600Z,10.48
2019-04-25T12:04:29.387Z,10.60
2019-04-25T12:07:00.584Z,11.18
2019-04-25T12:09:33.759Z,10.65
2019-04-25T12:12:07.617Z,10.82
2019-04-25T12:14:38.920Z,10.98
2019-04-25T12:17:12.752Z,12.55
2019-04-25T12:19:46.948Z,11.12
2019-04-25T12:22:21.381Z,10.72
2019-04-25T12:24:54.726Z,11.18
2019-04-25T12:27:26.508Z,11.10
2019-04-25T12:30:00.514Z,11.08
2019-04-25T12:32:35.310Z,10.65
2019-04-25T12:35:10.435Z,10.05
2019-04-25T12:37:41.165Z,10.80
2019-04-25T12:40:14.098Z,9.50
2019-04-25T12:42:46.286Z,9.58
2019-04-25T12:45:24.165Z,9.73
2019-04-25T12:47:59.373Z,9.98
2019-04-25T14:46:50.604Z,8.60
2019-04-25T14:49:30.550Z,7.35
2019-04-25T14:52:06.703Z,8.20
2019-04-25T14:54:42.057Z,7.78
2019-04-25T14:57:17.154Z,7.55
2019-04-25T14:59:48.041Z,7.90
2019-04-25T15:02:19.665Z,8.35
2019-04-25T15:04:50.555Z,8.13
2019-04-25T15:07:23.251Z,7.60
2019-04-25T15:09:54.323Z,8.80
2019-04-25T15:12:25.030Z,8.00
2019-04-25T15:14:56.153Z,7.55
2019-04-25T15:17:28.439Z,8.30
2019-04-25T15:19:59.495Z,7.65
2019-04-25T15:22:30.550Z,7.67
2019-04-25T15:25:01.248Z,9.13
2019-04-25T15:27:33.084Z,7.90
2019-04-25T15:30:06.483Z,8.63
2019-04-25T15:32:38.489Z,8.30
2019-04-25T15:35:11.584Z,7.97
2019-04-25T15:37:49.580Z,8.20
2019-04-25T15:40:31.979Z,8.95
2019-04-25T15:43:17.201Z,8.85
2019-04-25T15:45:58.770Z,7.62
2019-04-25T15:48:29.800Z,9.68
2019-04-25T15:51:00.803Z,8.90
2019-04-25T15:53:32.487Z,7.92
2019-04-25T15:56:03.077Z,7.70
2019-04-25T15:58:35.264Z,7.92
2019-04-25T16:01:07.112Z,7.67
2019-04-25T16:03:38.724Z,8.48
2019-04-25T16:06:10.514Z,8.05
2019-04-25T16:08:41.304Z,8.80
2019-04-25T16:11:12.813Z,7.30
2019-04-25T16:13:43.524Z,8.28
2019-04-25T16:16:17.246Z,7.75
2019-04-25T16:18:49.317Z,7.65
2019-04-25T16:21:21.112Z,8.33
2019-04-25T16:23:51.920Z,7.58
2019-04-25T16:26:23.026Z,8.00
2019-04-25T16:28:54.247Z,8.23
2019-04-25T16:31:26.704Z,7.95
2019-04-25T16:33:58.346Z,7.72
2019-04-25T16:36:29.702Z,8.38
2019-04-25T16:39:02.490Z,7.92
2019-04-25T16:41:34.745Z,7.80
2019-04-25T16:44:08.053Z,7.85
2019-04-25T16:46:39.780Z,8.23
2019-04-25T16:49:10.927Z,8.05
2019-04-25T16:51:42.378Z,8.60
2019-04-25T16:54:13.437Z,8.23
2019-04-25T16:56:44.744Z,7.83
2019-04-25T16:59:17.225Z,8.35
2019-04-25T17:01:48.563Z,9.08
2019-04-25T17:04:20.037Z,8.58
2019-04-25T17:06:51.094Z,8.65
2019-04-25T17:09:22.251Z,8.60
2019-04-25T17:11:53.168Z,7.70
2019-04-25T17:14:28.080Z,8.55
2019-04-25T17:17:12.489Z,8.13
2019-04-25T17:19:49.423Z,8.48
2019-04-25T17:22:22.280Z,8.28
2019-04-25T17:24:53.469Z,8.23
2019-04-25T17:27:24.322Z,7.97
2019-04-25T17:29:55.069Z,8.63
2019-04-25T17:32:46.764Z,8.15
2019-04-25T17:35:14.928Z,7.45
2019-04-25T17:37:53.513Z,9.23
2019-04-25T17:40:26.147Z,12.68
2019-04-25T17:43:10.509Z,16.85
2019-04-25T17:45:34.733Z,15.18
2019-04-25T17:48:05.812Z,17.50
2019-04-25T17:50:37.505Z,16.25
2019-04-25T17:56:37.022Z,14.13
2019-04-25T17:59:09.520Z,13.68
2019-04-25T18:01:40.243Z,15.35
2019-04-25T18:04:11.715Z,15.28
2019-04-25T18:06:43.038Z,15.68
2019-04-25T18:09:15.041Z,15.05
2019-04-25T18:11:46.423Z,21.23
2019-04-25T18:14:19.032Z,18.20
2019-04-25T18:16:50.150Z,13.98
2019-04-25T18:19:38.859Z,17.30
2019-04-25T18:22:11.251Z,17.65
2019-04-25T18:24:46.769Z,17.92
2019-04-25T18:27:28.370Z,19.23
2019-04-25T18:29:59.224Z,21.68
2019-04-25T18:32:32.293Z,18.62
2019-04-25T18:35:05.051Z,16.00
2019-04-25T18:37:43.424Z,14.50
2019-04-25T18:40:16.679Z,13.53
2019-04-25T18:42:55.612Z,13.47
2019-04-25T18:45:29.342Z,13.93
2019-04-25T18:48:00.548Z,16.65
2019-04-25T18:50:33.022Z,22.95
2019-04-25T18:53:11.274Z,23.50
2019-04-25T18:55:46.406Z,37.33
2019-04-25T18:58:41.889Z,24.20
2019-04-25T19:01:27.641Z,24.53
2019-04-25T19:04:10.272Z,23.13
2019-04-25T19:06:53.206Z,22.97
2019-04-25T19:09:14.164Z,23.83
2019-04-25T19:11:45.298Z,22.17
2019-04-25T19:14:16.638Z,29.97
2019-04-25T19:16:47.650Z,20.90
2019-04-25T19:19:20.003Z,16.63
2019-04-25T19:21:50.742Z,16.83
2019-04-25T19:24:22.039Z,16.63
2019-04-25T19:26:52.967Z,15.00
2019-04-25T19:29:26.239Z,15.07
2019-04-25T19:31:57.043Z,15.93
2019-04-25T19:34:27.869Z,14.50
2019-04-25T19:36:59.848Z,15.00
2019-04-25T19:39:32.755Z,13.33
2019-04-25T19:42:21.446Z,13.30
2019-04-25T19:44:52.506Z,12.80
2019-04-25T19:47:24.732Z,13.53
2019-04-25T19:49:55.527Z,13.23
2019-04-25T19:52:29.507Z,14.80
2019-04-25T19:55:00.395Z,16.50
2019-04-25T19:57:31.359Z,16.40
2019-04-25T20:00:03.537Z,21.10
2019-04-25T20:02:37.817Z,23.50
2019-04-25T20:05:13.968Z,21.27
2019-04-25T20:07:48.202Z,18.90
2019-04-25T20:10:39.800Z,18.13
2019-04-25T20:13:10.880Z,18.70
2019-04-25T20:15:44.052Z,18.90
2019-04-25T20:18:14.613Z,17.87
2019-04-25T20:20:46.018Z,17.53
2019-04-25T20:23:17.478Z,16.80
2019-04-25T20:25:48.458Z,18.23
2019-04-25T20:28:20.702Z,18.67
2019-04-25T20:30:52.154Z,22.17
2019-04-25T20:33:22.967Z,23.60
2019-04-25T20:35:53.947Z,24.30
2019-04-25T20:38:25.903Z,24.63
2019-04-25T20:40:56.884Z,24.90
2019-04-25T20:43:28.433Z,25.27
2019-04-25T20:45:59.805Z,27.03
2019-04-25T20:48:30.880Z,28.60
2019-04-25T20:51:02.176Z,27.03
2019-04-25T20:53:34.217Z,26.20
2019-04-25T20:56:05.968Z,28.17
2019-04-25T20:58:37.771Z,29.03
2019-04-25T21:01:08.651Z,29.00
2019-04-25T21:03:40.490Z,29.93
2019-04-25T21:06:17.477Z,30.73
2019-04-25T21:08:49.034Z,30.40
2019-04-25T21:11:20.878Z,30.47
2019-04-25T21:14:02.644Z,33.00
2019-04-25T21:16:56.421Z,32.30
2019-04-25T21:19:28.989Z,32.20
2019-04-25T21:22:01.093Z,29.70
2019-04-25T21:24:32.063Z,29.13
2019-04-25T21:27:03.437Z,31.93
2019-04-25T21:29:34.208Z,31.03
2019-04-25T21:32:05.573Z,31.43
2019-04-25T21:34:36.347Z,32.33
2019-04-25T21:37:09.002Z,31.93
2019-04-25T21:39:48.719Z,31.60
2019-04-25T21:42:27.820Z,30.73
2019-04-25T21:44:58.958Z,29.50
2019-04-25T21:47:30.043Z,31.27
2019-04-25T21:50:01.310Z,30.53
2019-04-25T21:52:34.495Z,30.77
2019-04-25T21:55:07.661Z,32.47
2019-04-25T21:57:39.237Z,32.10
2019-04-25T22:00:13.817Z,30.83
2019-04-25T22:02:46.760Z,32.40
2019-04-25T22:05:17.846Z,34.13
2019-04-25T22:07:49.478Z,31.53
2019-04-25T22:10:22.146Z,31.83
2019-04-25T22:12:53.284Z,30.90
2019-04-25T22:15:25.073Z,30.90
2019-04-25T22:17:58.114Z,31.47
2019-04-25T22:20:29.256Z,32.50
2019-04-25T22:23:00.329Z,33.67
2019-04-25T22:25:31.392Z,31.13
2019-04-25T22:28:03.071Z,29.70
2019-04-25T22:30:34.484Z,30.87
2019-04-25T22:33:19.275Z,29.97
2019-04-25T22:35:55.398Z,31.03
2019-04-25T22:38:26.456Z,32.10
2019-04-25T22:40:59.178Z,30.93
2019-04-25T22:43:32.829Z,30.80
2019-04-25T22:46:05.992Z,30.27
2019-04-25T22:48:50.718Z,29.93
2019-04-25T22:51:21.469Z,31.80
2019-04-25T22:53:52.846Z,35.03
2019-04-25T22:56:23.585Z,33.87
2019-04-25T22:58:54.387Z,34.37
2019-04-25T23:01:33.009Z,36.23
2019-04-25T23:04:11.798Z,36.17
2019-04-25T23:06:43.528Z,36.10
2019-04-25T23:09:14.732Z,35.50
2019-04-25T23:11:46.040Z,36.13
2019-04-25T23:14:17.025Z,33.17
2019-04-25T23:16:47.846Z,35.43
2019-04-25T23:19:18.715Z,33.50
2019-04-25T23:21:49.712Z,31.27
2019-04-25T23:24:22.038Z,31.77
2019-04-25T23:27:05.256Z,27.77
2019-04-25T23:29:36.486Z,27.60
2019-04-25T23:32:08.711Z,27.77
2019-04-25T23:34:39.979Z,26.83
2019-04-25T23:37:10.930Z,25.33
2019-04-25T23:39:42.723Z,28.43
2019-04-25T23:42:15.579Z,27.30
2019-04-25T23:44:46.873Z,27.07
2019-04-25T23:47:17.667Z,28.30
2019-04-25T23:52:38.265Z,27.07
2019-04-25T23:55:09.535Z,28.73
2019-04-25T23:57:41.281Z,26.43
